Stolt Dipper — ZCMY3 — position and weather

sailwx.info

Track history (hours):
 
Tides and Currents Weather Stations Pressure Air Temp Water Temp Dewpoint Dewpoint Depression Visibility Wind Speed Wind Dir Waves Ship Positions

Stolt Dipper

Last reported at 2016-Dec-05 18:29 UTC. Time now 2016-Dec-07 16:31 UTC.
Position N 37°58' E 024°39'.

Length 96 m; draft 4.9 m.

Type: Tanker. MMSI: 319036000.

Date/timePositionNaut miles runAvg speedWind from/ knotsBaromVisibWave heightAir tempDewpointWater temp
2016-Dec-05 18:29N 37°58' E 024°39'17 8.1
2016-Dec-05 16:25N 37°51' E 024°20'1 1.1
2016-Dec-05 15:33N 37°52' E 024°20'1111.3
2016-Dec-05 14:33N 37°43' E 024°29'47110.7
2016-Dec-03 18:31N 36°15' E 014°51'1212.9
2016-Dec-03 17:33N 36°16' E 014°35'1312.8
2016-Dec-03 16:33N 36°20' E 014°20'1312.7
2016-Dec-03 15:33N 36°21' E 014°04'1312.7
2016-Dec-03 14:32N 36°25' E 013°49'  
2016-Nov-27 09:14N 41°14' E 002°46'811.1
2016-Nov-27 08:32N 41°08' E 002°40'1111.0
2016-Nov-27 07:33N 40°59' E 002°31'1010.2
2016-Nov-27 06:32N 40°51' E 002°23'1010.3
2016-Nov-27 05:33N 40°42' E 002°16'1111.2
2016-Nov-27 04:34N 40°33' E 002°07'1111.2
2016-Nov-27 03:33N 40°24' E 001°59'1111.0
2016-Nov-27 02:33N 40°15' E 001°51'1111.1
2016-Nov-27 01:34N 40°06' E 001°43'1111.0
2016-Nov-27 00:34N 39°57' E 001°34'1111.0
2016-Nov-26 23:33N 39°47' E 001°26'15011.4
2016-Nov-26 10:25N 37°44' W 000°23'1112.4
2016-Nov-26 09:33N 37°34' W 000°30'1512.3
2016-Nov-26 08:19N 37°24' W 000°44'  
Track history (hours):
 
Tides and Currents Weather Stations Pressure Air Temp Water Temp Dewpoint Dewpoint Depression Visibility Wind Speed Wind Dir Waves Ship Positions

Stolt Dipper

Last reported at 2016-Dec-05 18:29 UTC. Time now 2016-Dec-07 16:31 UTC.
Position N 37°58' E 024°39'.

Length 96 m; draft 4.9 m.

Type: Tanker. MMSI: 319036000.

Date/timePositionNaut miles runAvg speedWind from/ knotsBaromVisibWave heightAir tempDewpointWater temp
2016-Dec-05 18:29N 37°58' E 024°39'17 8.1
2016-Dec-05 16:25N 37°51' E 024°20'1 1.1
2016-Dec-05 15:33N 37°52' E 024°20'1111.3
2016-Dec-05 14:33N 37°43' E 024°29'47110.7
2016-Dec-03 18:31N 36°15' E 014°51'1212.9
2016-Dec-03 17:33N 36°16' E 014°35'1312.8
2016-Dec-03 16:33N 36°20' E 014°20'1312.7
2016-Dec-03 15:33N 36°21' E 014°04'1312.7
2016-Dec-03 14:32N 36°25' E 013°49'  
2016-Nov-27 09:14N 41°14' E 002°46'811.1
2016-Nov-27 08:32N 41°08' E 002°40'1111.0
2016-Nov-27 07:33N 40°59' E 002°31'1010.2
2016-Nov-27 06:32N 40°51' E 002°23'1010.3
2016-Nov-27 05:33N 40°42' E 002°16'1111.2
2016-Nov-27 04:34N 40°33' E 002°07'1111.2
2016-Nov-27 03:33N 40°24' E 001°59'1111.0
2016-Nov-27 02:33N 40°15' E 001°51'1111.1
2016-Nov-27 01:34N 40°06' E 001°43'1111.0
2016-Nov-27 00:34N 39°57' E 001°34'1111.0
2016-Nov-26 23:33N 39°47' E 001°26'15011.4
2016-Nov-26 10:25N 37°44' W 000°23'1112.4
2016-Nov-26 09:33N 37°34' W 000°30'1512.3
2016-Nov-26 08:19N 37°24' W 000°44'  

Dump ship's entire track history